Time;durP1;ratioP1;P1;durP2;ratioP2;P2;SDS_P1;SDS_P2;PMS_P1;PMS_P2;Temp;Humidity;BMP_temperature;BMP_pressure;BME280_temperature;BME280_humidity;BME280_pressure;Samples;Min_cycle;Max_cycle;Signal;HPM_P1;HPM_P2
2022/07/27 00:00:19;;;;;;;3.60;2.10;;;;;;;18.46;83.29;100136.59;2774040;84;21062;-89
2022/07/27 00:04:22;;;;;;;2.10;1.95;;;;;;;18.44;83.55;100133.24;2853365;82;21148;-90
2022/07/27 00:08:24;;;;;;;3.80;2.15;;;;;;;18.47;82.06;100131.53;2892228;81;21475;-90
2022/07/27 00:12:25;;;;;;;7.60;2.85;;;;;;;18.40;83.20;100129.57;2892596;81;21081;-90
2022/07/27 00:16:26;;;;;;;3.20;2.83;;;;;;;18.37;83.58;100131.28;2853887;82;21527;-87
2022/07/27 00:20:29;;;;;;;2.47;1.92;;;;;;;18.39;80.28;100125.20;2895006;82;21482;-89
2022/07/27 00:24:31;;;;;;;2.17;1.85;;;;;;;18.36;78.24;100121.53;2865996;82;20990;-89
2022/07/27 00:28:33;;;;;;;2.70;2.33;;;;;;;18.15;78.80;100128.09;2886195;81;21146;-89
2022/07/27 00:32:35;;;;;;;1.90;1.70;;;;;;;18.04;79.35;100136.91;2799568;82;21034;-89
2022/07/27 00:36:36;;;;;;;3.98;2.27;;;;;;;18.06;79.35;100136.73;2891543;81;21059;-89
2022/07/27 00:40:38;;;;;;;1.85;1.72;;;;;;;18.12;79.18;100142.25;2888087;82;21007;-89
2022/07/27 00:44:40;;;;;;;3.08;2.77;;;;;;;18.14;79.02;100142.05;2885437;82;21070;-88
2022/07/27 00:48:41;;;;;;;2.35;2.15;;;;;;;18.19;78.69;100149.10;2895140;82;20979;-89
2022/07/27 00:52:44;;;;;;;2.52;1.55;;;;;;;18.22;78.18;100136.63;2839349;82;21739;-89
2022/07/27 00:56:46;;;;;;;3.65;1.87;;;;;;;18.21;78.28;100139.48;2884074;81;21011;-88
2022/07/27 01:00:47;;;;;;;2.52;1.98;;;;;;;18.21;78.56;100140.83;2818354;83;21042;-89
2022/07/27 01:04:49;;;;;;;4.10;1.98;;;;;;;18.24;78.62;100145.84;2870224;82;21416;-89
2022/07/27 01:08:50;;;;;;;3.35;2.55;;;;;;;18.24;78.36;100143.16;2861175;81;21004;-89
2022/07/27 01:12:52;;;;;;;2.87;2.65;;;;;;;18.24;78.64;100148.55;2843345;82;21597;-90
2022/07/27 01:16:53;;;;;;;5.67;2.58;;;;;;;18.08;80.37;100149.50;2861498;82;21343;-87
2022/07/27 01:20:56;;;;;;;2.98;2.35;;;;;;;17.94;79.52;100148.39;2864780;82;21710;-88
2022/07/27 01:24:58;;;;;;;3.60;2.40;;;;;;;17.94;78.93;100154.59;2865345;82;20987;-89
2022/07/27 01:29:00;;;;;;;5.45;3.10;;;;;;;17.88;79.43;100151.77;2847624;81;20995;-88
2022/07/27 01:33:05;;;;;;;5.00;2.37;;;;;;;17.85;78.92;100151.11;2851205;82;21508;-89
2022/07/27 01:37:07;;;;;;;4.12;2.02;;;;;;;17.87;79.01;100147.41;2829642;82;21027;-88
2022/07/27 01:41:08;;;;;;;3.85;2.10;;;;;;;17.87;78.86;100152.78;2844005;82;21030;-89
2022/07/27 01:45:10;;;;;;;5.10;2.60;;;;;;;17.86;78.67;100153.31;2865092;82;21561;-88
2022/07/27 01:49:11;;;;;;;2.25;2.05;;;;;;;17.81;78.98;100152.48;2848297;82;21000;-90
2022/07/27 01:53:13;;;;;;;3.22;2.83;;;;;;;17.81;79.55;100152.48;2862473;82;21502;-89
2022/07/27 01:57:14;;;;;;;3.12;2.35;;;;;;;17.63;81.95;100158.63;2848191;82;20992;-89
2022/07/27 02:01:16;;;;;;;3.37;2.70;;;;;;;17.55;81.52;100153.63;2850921;82;21538;-90
2022/07/27 02:05:17;;;;;;;3.87;2.50;;;;;;;17.60;81.40;100147.73;2874941;81;21006;-89
2022/07/27 02:09:19;;;;;;;2.85;2.60;;;;;;;17.65;81.24;100155.25;2904615;80;21030;-90
2022/07/27 02:13:21;;;;;;;4.12;2.55;;;;;;;17.72;80.26;100153.56;2876452;81;21010;-87
2022/07/27 02:17:22;;;;;;;3.72;2.02;;;;;;;17.66;79.52;100162.31;2869592;81;21058;-90
2022/07/27 02:21:23;;;;;;;6.37;2.92;;;;;;;17.64;79.78;100157.62;2883978;81;21022;-90
2022/07/27 02:25:25;;;;;;;2.50;2.30;;;;;;;17.58;80.40;100163.70;2868577;81;21178;-90
2022/07/27 02:29:26;;;;;;;3.22;2.90;;;;;;;17.51;81.34;100163.56;2870193;81;20962;-89
2022/07/27 02:33:28;;;;;;;3.85;2.52;;;;;;;17.55;81.87;100167.57;2904678;81;21673;-89
2022/07/27 02:37:30;;;;;;;4.67;2.62;;;;;;;17.67;82.23;100162.64;2904786;80;21538;-89
2022/07/27 02:41:31;;;;;;;11.20;4.37;;;;;;;17.84;81.94;100155.34;2900193;80;21018;-88
2022/07/27 02:45:33;;;;;;;19.02;5.05;;;;;;;17.81;81.69;100161.91;2880625;80;21046;-88
2022/07/27 02:49:34;;;;;;;5.85;2.85;;;;;;;17.73;81.69;100168.69;2895510;81;21046;-90
2022/07/27 02:53:35;;;;;;;5.50;2.62;;;;;;;17.75;82.25;100168.48;2893431;80;21082;-90
2022/07/27 02:57:39;;;;;;;5.17;2.70;;;;;;;17.87;82.45;100168.44;2903913;80;21066;-87
2022/07/27 03:01:41;;;;;;;27.58;7.65;;;;;;;18.03;82.46;100171.56;2893163;80;21022;-88
2022/07/27 03:05:42;;;;;;;15.70;3.77;;;;;;;18.17;81.99;100165.91;2838243;82;21090;-89
2022/07/27 03:09:44;;;;;;;12.13;3.52;;;;;;;18.25;81.18;100159.64;2840080;81;21522;-90
2022/07/27 03:13:45;;;;;;;10.95;3.95;;;;;;;18.16;80.79;100162.89;2862657;81;21026;-89
2022/07/27 03:17:47;;;;;;;14.83;3.52;;;;;;;18.04;81.01;100169.20;2773759;84;21022;-92
2022/07/27 03:21:48;;;;;;;11.38;2.92;;;;;;;17.98;81.81;100182.00;2775070;83;21059;-90
2022/07/27 03:25:49;;;;;;;6.08;2.98;;;;;;;17.91;81.87;100176.48;2771118;84;21700;-89
2022/07/27 03:29:51;;;;;;;43.33;7.50;;;;;;;17.94;82.14;100174.77;2739542;84;21043;-90
2022/07/27 03:33:52;;;;;;;24.27;6.92;;;;;;;17.90;82.62;100178.84;2768679;84;21578;-90
2022/07/27 03:37:54;;;;;;;28.70;6.35;;;;;;;18.00;83.07;100171.89;2762913;82;21082;-89
2022/07/27 03:41:55;;;;;;;7.87;3.67;;;;;;;18.09;82.99;100173.56;2747554;85;21488;-88
2022/07/27 03:45:57;;;;;;;14.18;3.35;;;;;;;18.20;82.98;100172.31;2742632;85;21011;-90
2022/07/27 03:49:58;;;;;;;7.45;3.20;;;;;;;18.35;83.13;100170.17;2844785;81;20999;-91
2022/07/27 03:53:59;;;;;;;3.90;2.20;;;;;;;18.39;83.22;100158.86;2854856;81;21586;-90
2022/07/27 03:58:01;;;;;;;3.05;2.20;;;;;;;18.40;83.47;100163.75;2824258;84;21082;-89
2022/07/27 04:02:04;;;;;;;2.95;2.17;;;;;;;18.39;83.36;100154.83;2829119;83;21566;-89
2022/07/27 04:06:05;;;;;;;71.47;14.78;;;;;;;18.31;83.86;100150.86;2874458;81;21056;-93
2022/07/27 04:10:08;;;;;;;18.07;3.17;;;;;;;18.27;83.84;100149.52;2894759;82;20963;-93
2022/07/27 04:14:11;;;;;;;7.12;2.40;;;;;;;18.27;83.92;100144.98;2853604;82;21048;-93
2022/07/27 04:22:23;;;;;;;4.58;2.80;;;;;;;18.37;84.85;100152.83;2701323;85;21130;-92
2022/07/27 04:26:25;;;;;;;6.55;2.55;;;;;;;18.60;84.86;100158.69;2732807;85;21273;-90
2022/07/27 04:30:27;;;;;;;2.45;2.22;;;;;;;18.85;84.90;100159.80;2733281;85;21114;-93
2022/07/27 04:34:28;;;;;;;2.87;2.40;;;;;;;19.05;84.02;100162.00;2746163;84;21157;-94
2022/07/27 04:38:29;;;;;;;79.25;14.70;;;;;;;19.21;83.21;100167.22;2745818;84;21050;-88
2022/07/27 04:42:31;;;;;;;2.45;2.22;;;;;;;19.35;82.57;100156.09;2690162;85;21647;-86
2022/07/27 04:46:32;;;;;;;2.40;2.20;;;;;;;19.46;81.87;100163.41;2655072;87;21671;-88
2022/07/27 04:50:43;;;;;;;2.87;1.87;;;;;;;19.38;81.25;100171.93;2655385;87;21080;-87
2022/07/27 04:54:44;;;;;;;8.03;2.50;;;;;;;19.22;80.97;100169.41;2692310;86;21003;-87
2022/07/27 04:58:46;;;;;;;6.17;2.95;;;;;;;19.17;80.09;100165.92;2647127;87;21129;-90
2022/07/27 05:02:48;;;;;;;6.08;2.33;;;;;;;19.07;79.92;100160.80;2697561;86;21631;-89
2022/07/27 05:06:49;;;;;;;5.03;1.40;;;;;;;19.09;78.64;100167.37;2627673;88;21617;-87
2022/07/27 05:10:50;;;;;;;3.98;2.17;;;;;;;19.11;78.37;100168.02;2609678;88;21061;-86
2022/07/27 05:14:52;;;;;;;5.47;1.80;;;;;;;19.06;78.09;100173.10;2650500;86;21039;-89
2022/07/27 05:18:53;;;;;;;5.05;2.08;;;;;;;19.09;78.44;100179.50;2692057;87;21107;-87
2022/07/27 05:22:54;;;;;;;8.23;2.72;;;;;;;19.20;78.37;100180.90;2694035;85;21096;-88
2022/07/27 05:26:56;;;;;;;3.52;1.72;;;;;;;19.08;78.54;100186.73;2688487;86;21064;-90
2022/07/27 05:30:57;;;;;;;9.70;2.35;;;;;;;19.09;77.86;100188.41;2696647;87;21087;-89
2022/07/27 05:34:59;;;;;;;16.07;3.87;;;;;;;19.06;77.92;100194.67;2671729;86;21081;-88
2022/07/27 05:39:00;;;;;;;31.40;8.30;;;;;;;19.01;77.41;100210.56;2770833;83;21785;-87
2022/07/27 05:43:01;;;;;;;2.67;1.95;;;;;;;19.04;76.83;100211.05;2755443;85;21049;-89
2022/07/27 05:47:02;;;;;;;4.65;2.00;;;;;;;18.88;77.16;100218.75;2774043;83;21018;-90
2022/07/27 05:51:04;;;;;;;2.50;2.10;;;;;;;18.85;77.84;100217.73;2775628;85;21595;-90
2022/07/27 05:55:06;;;;;;;8.70;1.85;;;;;;;18.77;78.40;100227.25;2748830;85;21092;-91
2022/07/27 05:59:07;;;;;;;3.47;1.47;;;;;;;18.82;78.44;100232.93;2758642;84;21080;-89
2022/07/27 06:03:09;;;;;;;4.58;1.75;;;;;;;18.89;78.26;100235.24;2733629;84;21078;-90
2022/07/27 06:11:30;;;;;;;6.62;2.37;;;;;;;18.91;78.05;100242.63;2685546;85;21390;-88
2022/07/27 06:15:32;;;;;;;7.87;2.05;;;;;;;18.95;77.95;100256.56;2689419;87;21115;-90
2022/07/27 06:19:33;;;;;;;10.40;3.42;;;;;;;18.77;78.50;100258.23;2740684;85;21173;-87
2022/07/27 06:23:34;;;;;;;40.88;7.33;;;;;;;18.74;79.09;100246.48;2706745;85;21142;-89
2022/07/27 06:27:36;;;;;;;25.23;4.17;;;;;;;18.69;79.43;100269.42;2678433;85;21074;-89
2022/07/27 06:31:37;;;;;;;2.70;1.70;;;;;;;18.74;79.62;100268.03;2689576;86;21078;-89
2022/07/27 06:35:40;;;;;;;21.85;5.78;;;;;;;18.73;79.79;100278.48;2710882;85;21076;-89
2022/07/27 06:39:41;;;;;;;4.75;2.87;;;;;;;18.77;79.92;100275.26;2711425;85;21123;-88
2022/07/27 06:43:42;;;;;;;10.43;2.75;;;;;;;18.74;80.46;100268.86;2703035;85;21098;-88
2022/07/27 06:47:44;;;;;;;6.40;2.45;;;;;;;18.88;80.31;100269.95;2654518;87;22405;-90
2022/07/27 06:51:46;;;;;;;5.17;2.27;;;;;;;19.02;80.34;100271.53;2645167;88;29271;-91
2022/07/27 06:55:48;;;;;;;8.85;4.20;;;;;;;19.18;79.52;100263.30;2702140;85;21689;-90
2022/07/27 06:59:53;;;;;;;8.75;3.85;;;;;;;19.38;78.99;100260.08;2634580;88;21067;-89
2022/07/27 07:03:54;;;;;;;4.90;3.12;;;;;;;19.39;79.00;100273.89;2626852;89;21101;-91
2022/07/27 07:07:56;;;;;;;3.42;2.95;;;;;;;19.53;78.95;100275.77;2589273;89;21050;-91
2022/07/27 07:11:58;;;;;;;17.37;6.87;;;;;;;19.55;78.99;100275.06;2614527;87;21069;-90
2022/07/27 07:15:59;;;;;;;3.92;3.55;;;;;;;19.72;78.93;100265.94;2648116;87;21077;-87
2022/07/27 07:20:00;;;;;;;5.17;3.60;;;;;;;19.97;78.84;100266.52;2633744;86;21621;-90
2022/07/27 07:24:02;;;;;;;5.28;3.98;;;;;;;20.31;78.08;100266.91;2679857;87;21100;-91
2022/07/27 07:28:05;;;;;;;9.45;3.52;;;;;;;20.37;76.61;100264.81;2612415;89;21045;-91
2022/07/27 07:32:07;;;;;;;4.83;3.72;;;;;;;20.51;76.53;100253.63;2654048;87;21116;-88
2022/07/27 07:36:09;;;;;;;4.10;3.35;;;;;;;20.76;76.09;100261.34;2689450;86;21046;-91
2022/07/27 07:40:11;;;;;;;4.62;3.83;;;;;;;21.06;74.91;100253.94;2663533;87;21122;-91
2022/07/27 07:44:12;;;;;;;4.42;3.40;;;;;;;21.50;73.59;100262.78;2672298;86;21017;-91
2022/07/27 07:48:13;;;;;;;4.10;3.62;;;;;;;21.71;72.41;100263.76;2711402;86;21038;-90
2022/07/27 07:52:15;;;;;;;4.03;3.02;;;;;;;21.91;72.04;100277.91;2696655;87;21062;-89
2022/07/27 07:56:16;;;;;;;6.60;4.33;;;;;;;21.73;71.73;100289.29;2719682;85;21613;-89
2022/07/27 08:00:18;;;;;;;6.20;4.00;;;;;;;21.75;71.69;100286.69;2743459;86;21110;-90
2022/07/27 08:04:19;;;;;;;5.12;3.72;;;;;;;21.92;71.40;100287.70;2741231;84;21087;-91
2022/07/27 08:08:21;;;;;;;11.68;4.72;;;;;;;22.08;70.51;100291.44;2745229;85;21071;-87
2022/07/27 08:12:22;;;;;;;4.33;3.70;;;;;;;21.99;70.88;100293.16;2751609;86;21014;-89
2022/07/27 08:16:23;;;;;;;21.35;5.97;;;;;;;21.96;71.16;100295.74;2726820;86;21297;-90
2022/07/27 08:20:27;;;;;;;7.72;3.55;;;;;;;22.01;70.80;100301.41;2690360;85;21102;-90
2022/07/27 08:24:28;;;;;;;4.90;4.05;;;;;;;21.75;71.10;100304.81;2719791;85;21082;-90
2022/07/27 08:28:30;;;;;;;9.45;4.45;;;;;;;21.64;70.96;100310.23;2702668;86;21086;-88
2022/07/27 08:32:31;;;;;;;4.72;3.05;;;;;;;21.33;71.45;100303.34;2686310;86;21091;-91
2022/07/27 08:36:33;;;;;;;6.12;4.62;;;;;;;21.21;72.14;100321.45;2744185;83;21055;-88
2022/07/27 08:40:35;;;;;;;6.65;3.15;;;;;;;21.02;72.14;100324.81;2765253;84;21065;-91
2022/07/27 08:44:52;;;;;;;4.03;3.17;;;;;;;21.12;72.18;100311.28;2748348;84;21150;-91
2022/07/27 08:48:53;;;;;;;4.67;2.95;;;;;;;21.18;70.90;100313.73;2724548;84;21967;-91
2022/07/27 08:53:05;;;;;;;3.58;2.20;;;;;;;21.50;69.04;100302.02;2717922;85;21070;-89
2022/07/27 08:57:09;;;;;;;2.55;2.30;;;;;;;22.03;66.98;100309.31;2641330;87;21643;-92
2022/07/27 09:01:10;;;;;;;5.45;2.45;;;;;;;22.30;64.64;100302.64;2675242;86;21049;-91
2022/07/27 09:05:12;;;;;;;8.03;2.80;;;;;;;22.65;63.77;100285.80;2697525;85;21099;-92
2022/07/27 09:09:18;;;;;;;2.52;1.37;;;;;;;23.25;62.02;100283.67;2685992;85;21073;-91
2022/07/27 09:13:32;;;;;;;3.08;1.20;;;;;;;23.56;57.73;100295.41;2659038;88;21081;-89
2022/07/27 09:17:34;;;;;;;6.10;1.82;;;;;;;23.41;57.45;100282.92;2718751;87;21049;-93
2022/07/27 09:21:37;;;;;;;4.85;1.60;;;;;;;23.66;57.98;100274.91;2700481;86;21101;-91
2022/07/27 09:25:38;;;;;;;5.58;2.12;;;;;;;23.89;55.48;100278.20;2774286;83;20995;-92
2022/07/27 09:29:40;;;;;;;3.08;1.80;;;;;;;24.14;55.47;100277.50;2727532;84;21075;-92
2022/07/27 09:33:47;;;;;;;5.50;1.42;;;;;;;24.38;53.88;100274.05;2719754;85;21036;-90
2022/07/27 09:37:49;;;;;;;3.58;1.75;;;;;;;24.30;52.32;100270.20;2761320;84;21069;-92
2022/07/27 09:41:58;;;;;;;3.08;1.45;;;;;;;23.99;52.42;100277.23;2700561;85;21073;-91
2022/07/27 09:46:06;;;;;;;2.52;1.15;;;;;;;23.77;52.75;100272.60;2784301;84;21031;-89
2022/07/27 09:50:20;;;;;;;2.55;0.93;;;;;;;23.76;52.56;100272.29;2758806;83;21087;-91
2022/07/27 09:54:22;;;;;;;6.45;1.32;;;;;;;23.79;53.14;100276.78;2736541;83;20980;-91
2022/07/27 09:58:40;;;;;;;3.45;1.20;;;;;;;23.98;53.00;100263.85;2785538;84;21098;-91
2022/07/27 10:02:42;;;;;;;15.30;3.72;;;;;;;23.99;51.86;100269.59;2763628;83;21070;-91
2022/07/27 10:06:44;;;;;;;3.90;1.40;;;;;;;23.93;51.99;100275.36;2787544;84;21007;-91
2022/07/27 10:10:45;;;;;;;4.37;2.00;;;;;;;24.03;52.17;100271.70;2703688;83;21707;-90
2022/07/27 10:14:47;;;;;;;6.45;1.75;;;;;;;24.20;52.00;100269.86;2772563;85;21034;-90
2022/07/27 10:19:14;;;;;;;2.25;0.70;;;;;;;24.34;51.86;100271.97;2800571;85;21019;-87
2022/07/27 10:23:28;;;;;;;1.75;1.42;;;;;;;24.25;52.11;100275.47;2711794;85;21528;-92
2022/07/27 10:27:30;;;;;;;4.35;1.20;;;;;;;24.14;52.56;100274.27;2695517;85;21017;-93
2022/07/27 10:31:36;;;;;;;13.22;1.92;;;;;;;24.03;52.84;100273.06;2772647;83;21048;-92
2022/07/27 10:35:38;;;;;;;5.30;2.25;;;;;;;24.06;52.68;100272.62;2769539;83;21086;-92
2022/07/27 10:39:47;;;;;;;4.55;1.00;;;;;;;24.20;51.94;100273.93;2774760;84;21494;-92
2022/07/27 10:43:50;;;;;;;8.18;1.72;;;;;;;24.16;51.30;100262.66;2744067;84;21031;-92
2022/07/27 10:47:52;;;;;;;6.62;1.52;;;;;;;24.16;52.73;100265.88;2748429;83;21036;-91
2022/07/27 10:51:56;;;;;;;15.32;1.95;;;;;;;24.19;51.68;100258.14;2759176;83;21000;-92
2022/07/27 10:55:58;;;;;;;2.17;1.17;;;;;;;24.31;51.55;100263.72;2747586;84;21038;-92
2022/07/27 11:00:04;;;;;;;5.15;1.45;;;;;;;24.64;50.66;100257.25;2733431;85;20979;-91
2022/07/27 11:04:09;;;;;;;7.72;2.12;;;;;;;24.85;50.39;100255.23;2752161;83;21079;-92
2022/07/27 11:08:11;;;;;;;4.92;1.47;;;;;;;24.74;49.17;100262.70;2708334;86;21494;-91
2022/07/27 11:12:15;;;;;;;3.98;0.95;;;;;;;24.68;48.65;100267.98;2707159;87;21072;-92
2022/07/27 11:16:18;;;;;;;4.07;1.47;;;;;;;24.61;48.30;100271.28;2694367;85;21364;-89
2022/07/27 11:20:23;;;;;;;3.75;1.05;;;;;;;24.47;47.93;100264.26;2718834;85;21137;-92
2022/07/27 11:24:24;;;;;;;52.30;8.40;;;;;;;24.57;47.55;100272.78;2692439;86;22026;-91
2022/07/27 11:28:35;;;;;;;13.72;3.12;;;;;;;24.66;47.97;100274.17;2719186;86;21027;-92
2022/07/27 11:32:36;;;;;;;35.70;2.33;;;;;;;24.62;47.85;100277.55;2712141;86;21718;-92
2022/07/27 11:36:48;;;;;;;4.25;0.62;;;;;;;24.17;48.30;100283.84;2722794;87;21096;-92
2022/07/27 11:40:51;;;;;;;2.58;0.78;;;;;;;24.16;48.20;100288.98;2671671;88;21093;-91
2022/07/27 11:44:52;;;;;;;2.08;1.12;;;;;;;24.22;48.58;100279.44;2694652;87;21041;-87
2022/07/27 11:49:06;;;;;;;3.27;0.95;;;;;;;24.21;48.33;100291.91;2699586;86;21542;-91
2022/07/27 11:53:09;;;;;;;3.33;1.50;;;;;;;24.06;48.71;100290.28;2691419;87;21047;-92
2022/07/27 11:57:17;;;;;;;22.70;5.05;;;;;;;23.90;49.22;100278.51;2711309;85;21023;-91
2022/07/27 12:01:35;;;;;;;27.15;5.60;;;;;;;23.92;49.48;100283.20;2695986;85;21069;-88
2022/07/27 12:05:36;;;;;;;3.08;1.87;;;;;;;23.82;50.03;100276.35;2714122;85;21129;-89
2022/07/27 12:09:48;;;;;;;4.10;2.33;;;;;;;23.63;49.92;100277.24;2700997;85;21565;-93
2022/07/27 12:13:57;;;;;;;2.80;1.15;;;;;;;23.58;50.26;100278.38;2662179;87;21042;-91
2022/07/27 12:17:58;;;;;;;4.22;1.62;;;;;;;23.38;50.25;100267.03;2669494;86;21026;-92
2022/07/27 12:22:01;;;;;;;1.87;0.93;;;;;;;23.38;50.34;100269.75;2683753;86;21114;-92
2022/07/27 12:26:24;;;;;;;4.53;0.80;;;;;;;23.36;51.44;100268.63;2667039;86;21068;-91
2022/07/27 12:30:44;;;;;;;2.67;0.78;;;;;;;23.31;50.76;100287.94;2628946;88;21143;-88
2022/07/27 12:34:45;;;;;;;2.10;0.72;;;;;;;23.11;50.93;100287.39;2648463;88;21109;-90
2022/07/27 12:38:48;;;;;;;3.02;0.80;;;;;;;23.04;50.87;100287.38;2689176;86;21047;-91
2022/07/27 12:43:02;;;;;;;7.62;1.55;;;;;;;22.92;51.08;100294.49;2659938;87;21079;-89
2022/07/27 12:51:27;;;;;;;15.93;1.57;;;;;;;22.74;52.09;100299.14;2648005;87;21108;-92
2022/07/27 12:55:28;;;;;;;1.20;0.72;;;;;;;22.59;52.50;100298.80;2660372;86;21060;-92
2022/07/27 12:59:29;;;;;;;4.35;1.37;;;;;;;22.39;52.92;100292.77;2666499;87;21604;-91
2022/07/27 13:03:31;;;;;;;2.90;0.82;;;;;;;22.24;53.37;100302.96;2668579;86;21102;-90
2022/07/27 13:07:32;;;;;;;5.03;0.95;;;;;;;22.06;54.30;100298.92;2667250;88;21007;-92
2022/07/27 13:11:33;;;;;;;6.30;1.87;;;;;;;21.86;54.80;100310.18;2663461;88;21046;-91
2022/07/27 13:15:35;;;;;;;3.72;1.65;;;;;;;21.58;55.89;100311.00;2682728;87;21499;-88
2022/07/27 13:19:36;;;;;;;8.55;2.17;;;;;;;21.54;56.31;100310.59;2662759;87;21157;-93
2022/07/27 13:23:38;;;;;;;4.60;1.70;;;;;;;21.41;56.63;100308.59;2661678;87;21038;-90
2022/07/27 13:27:39;;;;;;;2.98;1.37;;;;;;;21.38;57.23;100311.20;2638868;88;21109;-93
2022/07/27 13:31:41;;;;;;;3.92;1.40;;;;;;;21.32;57.58;100301.17;2661822;87;21090;-92
2022/07/27 13:35:42;;;;;;;8.03;1.95;;;;;;;21.38;58.12;100304.44;2665205;87;21045;-92
2022/07/27 13:39:43;;;;;;;13.68;3.02;;;;;;;21.09;61.59;100311.68;2573450;89;21639;-94
2022/07/27 13:43:44;;;;;;;5.45;1.45;;;;;;;20.83;63.58;100317.67;2665311;87;21041;-93
2022/07/27 13:47:46;;;;;;;5.90;1.75;;;;;;;20.45;66.67;100321.41;2696086;86;21126;-92
2022/07/27 13:51:47;;;;;;;2.67;1.60;;;;;;;20.41;68.39;100324.17;2665318;86;21126;-92
2022/07/27 13:55:48;;;;;;;6.97;1.90;;;;;;;20.10;69.00;100332.84;2657627;86;21499;-94
2022/07/27 13:59:49;;;;;;;3.87;1.98;;;;;;;20.05;70.31;100335.77;2706470;86;21060;-93
2022/07/27 14:03:51;;;;;;;6.78;2.47;;;;;;;19.75;72.00;100327.13;2698484;85;21059;-94
2022/07/27 14:07:53;;;;;;;7.12;2.10;;;;;;;19.58;72.26;100337.27;2693549;86;21414;-89
2022/07/27 14:11:55;;;;;;;2.12;0.93;;;;;;;19.45;74.94;100337.88;2699433;86;21013;-94
2022/07/27 14:15:56;;;;;;;4.10;1.92;;;;;;;19.34;76.09;100327.55;2690449;85;21095;-92
2022/07/27 14:19:59;;;;;;;4.45;1.50;;;;;;;19.45;77.46;100323.56;2719868;86;21067;-88
2022/07/27 14:24:02;;;;;;;4.55;2.58;;;;;;;19.47;76.91;100321.52;2807708;80;21088;-91
2022/07/27 14:28:03;;;;;;;4.58;1.95;;;;;;;19.55;76.83;100316.03;2745384;84;21031;-93
2022/07/27 14:32:05;;;;;;;8.90;2.52;;;;;;;19.54;76.84;100321.95;2861627;81;20999;-88
2022/07/27 14:36:08;;;;;;;6.35;1.77;;;;;;;19.54;77.32;100320.61;2913307;80;21046;-91
2022/07/27 14:40:11;;;;;;;7.25;1.82;;;;;;;19.51;77.79;100325.02;2882031;81;21008;-91
2022/07/27 14:44:13;;;;;;;2.98;2.30;;;;;;;19.49;78.31;100323.52;2839148;82;21055;-92
2022/07/27 14:48:17;;;;;;;9.55;3.40;;;;;;;19.45;80.28;100324.39;2768423;82;21079;-92
2022/07/27 14:52:18;;;;;;;5.83;2.25;;;;;;;19.47;81.75;100334.52;2784029;82;21071;-91
2022/07/27 14:56:20;;;;;;;4.35;2.47;;;;;;;19.52;81.83;100336.14;2813518;82;21016;-91
2022/07/27 15:00:22;;;;;;;5.85;2.25;;;;;;;19.53;83.00;100336.47;2826611;82;21037;-93
2022/07/27 15:04:23;;;;;;;10.40;2.70;;;;;;;19.51;83.59;100329.56;2841480;82;21076;-92
2022/07/27 15:08:24;;;;;;;2.62;1.57;;;;;;;19.46;83.69;100323.39;2840449;82;22174;-93
2022/07/27 15:12:27;;;;;;;8.60;2.05;;;;;;;19.47;82.68;100322.37;2839403;82;21022;-93
2022/07/27 15:16:29;;;;;;;3.20;1.95;;;;;;;19.54;83.61;100323.30;2807251;81;21017;-91
2022/07/27 15:20:31;;;;;;;5.45;3.15;;;;;;;19.56;82.80;100327.17;2763674;82;21572;-92
2022/07/27 15:24:32;;;;;;;5.22;2.42;;;;;;;19.54;83.67;100319.25;2807969;82;21047;-93
2022/07/27 15:28:34;;;;;;;3.83;1.80;;;;;;;19.52;84.63;100319.10;2842482;82;21104;-89
2022/07/27 15:32:35;;;;;;;5.45;1.87;;;;;;;19.59;83.17;100316.02;2837120;83;20977;-92
2022/07/27 15:36:36;;;;;;;4.85;2.35;;;;;;;19.62;85.18;100298.59;2837449;83;21029;-92
2022/07/27 15:40:40;;;;;;;6.47;2.08;;;;;;;19.74;84.15;100293.58;2856444;82;21055;-93
2022/07/27 15:44:41;;;;;;;5.55;2.02;;;;;;;19.81;83.79;100292.64;2837160;82;21036;-93
2022/07/27 15:48:42;;;;;;;6.28;2.17;;;;;;;19.89;82.06;100301.69;2829193;82;21028;-93
2022/07/27 15:52:43;;;;;;;3.90;1.45;;;;;;;19.95;82.14;100292.86;2821398;82;21043;-92
2022/07/27 15:56:45;;;;;;;10.00;2.45;;;;;;;19.99;81.49;100286.06;2807240;83;22232;-90
2022/07/27 16:00:53;;;;;;;8.30;2.20;;;;;;;20.01;79.92;100273.73;2860282;82;21035;-89
2022/07/27 16:04:54;;;;;;;4.28;2.02;;;;;;;20.33;82.46;100272.45;2838176;82;21019;-92
2022/07/27 16:08:55;;;;;;;5.72;2.52;;;;;;;20.74;77.93;100271.02;2862542;82;21023;-90
2022/07/27 16:12:59;;;;;;;2.83;1.37;;;;;;;21.23;74.96;100269.38;2840405;82;21085;-92
2022/07/27 16:17:01;;;;;;;4.67;1.30;;;;;;;21.66;70.67;100273.01;2832878;82;21590;-92
2022/07/27 16:21:03;;;;;;;1.80;0.90;;;;;;;21.87;66.84;100264.47;2856429;82;21023;-92
2022/07/27 16:25:05;;;;;;;7.05;1.47;;;;;;;21.98;62.71;100270.64;2803683;82;21054;-93
2022/07/27 16:29:07;;;;;;;4.60;1.17;;;;;;;22.01;63.20;100261.30;2841632;81;21089;-91
2022/07/27 16:33:08;;;;;;;3.92;1.42;;;;;;;22.13;62.45;100261.04;2834427;82;21053;-94
2022/07/27 16:37:09;;;;;;;2.45;0.88;;;;;;;22.13;61.92;100265.61;2834146;82;21055;-93
2022/07/27 16:41:11;;;;;;;3.80;1.32;;;;;;;22.18;62.94;100254.99;2840574;83;21095;-92
2022/07/27 16:45:13;;;;;;;10.82;1.70;;;;;;;22.09;61.92;100259.75;2797803;82;21542;-89
2022/07/27 16:49:14;;;;;;;4.15;1.30;;;;;;;22.01;61.25;100254.02;2829648;82;21036;-92
2022/07/27 16:53:16;;;;;;;3.52;1.70;;;;;;;21.95;62.19;100248.03;2790791;82;21501;-86
2022/07/27 16:57:17;;;;;;;3.00;1.22;;;;;;;21.88;61.57;100256.66;2808988;82;21029;-92
2022/07/27 17:01:18;;;;;;;2.40;0.62;;;;;;;21.94;61.67;100242.31;2810649;82;21119;-92
2022/07/27 17:05:20;;;;;;;20.72;2.67;;;;;;;21.97;61.27;100245.45;2827653;82;21084;-95
2022/07/27 17:09:22;;;;;;;3.83;1.10;;;;;;;21.93;60.59;100245.55;2832930;82;21067;-88
2022/07/27 17:13:23;;;;;;;7.08;1.47;;;;;;;21.91;61.39;100240.01;2804023;83;21431;-91
2022/07/27 17:17:24;;;;;;;3.75;1.15;;;;;;;21.86;60.37;100243.31;2832266;83;21015;-89
2022/07/27 17:21:26;;;;;;;2.90;1.02;;;;;;;21.80;61.01;100250.36;2821197;82;20946;-90
2022/07/27 17:25:27;;;;;;;4.20;1.25;;;;;;;21.77;61.11;100244.00;2835858;81;21051;-93
2022/07/27 17:29:29;;;;;;;5.97;2.37;;;;;;;21.75;61.85;100243.37;2827446;81;21015;-88
2022/07/27 17:33:30;;;;;;;10.95;2.98;;;;;;;21.73;62.24;100247.33;2830976;82;21041;-89
2022/07/27 17:37:32;;;;;;;10.28;2.47;;;;;;;21.72;62.82;100247.84;2835185;82;21049;-89
2022/07/27 17:41:33;;;;;;;2.15;1.82;;;;;;;21.74;63.34;100247.11;2808370;82;21558;-90
2022/07/27 17:45:34;;;;;;;7.05;1.90;;;;;;;21.71;63.32;100251.58;2813039;82;21003;-85
2022/07/27 17:49:36;;;;;;;3.60;1.05;;;;;;;21.67;62.87;100248.97;2817621;83;21044;-89
2022/07/27 17:53:37;;;;;;;3.33;2.00;;;;;;;21.64;63.49;100254.75;2809088;82;21575;-88
2022/07/27 17:57:39;;;;;;;9.78;2.58;;;;;;;21.63;63.25;100257.95;2812601;82;21036;-92
2022/07/27 18:01:40;;;;;;;16.87;4.28;;;;;;;21.61;63.18;100258.68;2810247;82;21005;-91
2022/07/27 18:05:42;;;;;;;23.50;4.87;;;;;;;21.56;63.41;100261.16;2848675;81;21054;-92
2022/07/27 18:09:44;;;;;;;16.75;5.22;;;;;;;21.48;63.55;100256.73;2826423;81;20985;-92
2022/07/27 18:13:45;;;;;;;23.12;8.23;;;;;;;21.40;64.45;100257.72;2810032;82;21044;-91
2022/07/27 18:17:47;;;;;;;24.50;9.10;;;;;;;21.32;64.61;100263.80;2809534;82;21009;-91
2022/07/27 18:21:49;;;;;;;18.45;7.97;;;;;;;21.23;65.09;100266.67;2806586;82;20970;-89
2022/07/27 18:25:50;;;;;;;16.27;5.87;;;;;;;21.16;65.28;100265.77;2823172;82;20973;-90
2022/07/27 18:29:51;;;;;;;14.80;5.58;;;;;;;21.05;65.56;100275.25;2812961;82;21046;-91
2022/07/27 18:33:53;;;;;;;11.12;4.30;;;;;;;20.94;65.65;100280.67;2821206;82;21496;-90
2022/07/27 18:37:55;;;;;;;5.72;2.67;;;;;;;20.81;65.97;100276.48;2805723;82;21102;-91
2022/07/27 18:42:02;;;;;;;4.15;2.17;;;;;;;20.68;66.01;100276.67;2831837;82;21046;-85
2022/07/27 18:45:59;;;;;;;4.17;2.60;;;;;;;20.59;66.10;100291.84;2824919;82;21592;-88
2022/07/27 18:50:01;;;;;;;7.70;3.00;;;;;;;20.43;66.45;100291.55;2852383;82;21082;-87
2022/07/27 18:54:02;;;;;;;34.25;6.92;;;;;;;20.28;66.84;100298.35;2871352;80;21018;-85
2022/07/27 18:58:06;;;;;;;39.78;11.80;;;;;;;20.09;67.57;100304.17;2766827;82;20977;-90